sensor_id;sensor_type;location;lat;lon;timestamp;P1;durP1;ratioP1;P2;durP2;ratioP2
10874;SDS011;5490;52.200;8.786;2023-03-12T15:34:36;7.20;;;4.30;;
10874;SDS011;5490;52.200;8.786;2023-03-12T15:37:18;7.33;;;4.80;;
10874;SDS011;5490;52.200;8.786;2023-03-12T15:39:48;6.40;;;4.50;;
10874;SDS011;5490;52.200;8.786;2023-03-12T15:42:17;7.60;;;5.17;;
10874;SDS011;5490;52.200;8.786;2023-03-12T15:44:47;6.20;;;4.73;;
10874;SDS011;5490;52.200;8.786;2023-03-12T15:47:16;8.60;;;5.03;;
10874;SDS011;5490;52.200;8.786;2023-03-12T15:49:48;7.93;;;5.03;;
10874;SDS011;5490;52.200;8.786;2023-03-12T15:52:25;9.63;;;5.30;;
10874;SDS011;5490;52.200;8.786;2023-03-12T15:55:01;10.20;;;5.67;;
10874;SDS011;5490;52.200;8.786;2023-03-12T15:57:31;7.57;;;5.33;;
10874;SDS011;5490;52.200;8.786;2023-03-12T16:00:15;7.27;;;5.43;;
10874;SDS011;5490;52.200;8.786;2023-03-12T16:02:51;9.20;;;6.40;;
10874;SDS011;5490;52.200;8.786;2023-03-12T16:05:22;9.77;;;5.97;;
10874;SDS011;5490;52.200;8.786;2023-03-12T16:07:51;9.80;;;5.47;;
10874;SDS011;5490;52.200;8.786;2023-03-12T16:10:19;7.50;;;4.93;;
10874;SDS011;5490;52.200;8.786;2023-03-12T16:12:49;9.17;;;5.87;;
10874;SDS011;5490;52.200;8.786;2023-03-12T16:27:51;7.63;;;5.20;;
10874;SDS011;5490;52.200;8.786;2023-03-12T16:30:21;9.80;;;5.37;;
10874;SDS011;5490;52.200;8.786;2023-03-12T16:32:51;9.50;;;5.87;;
10874;SDS011;5490;52.200;8.786;2023-03-12T16:35:18;8.73;;;5.43;;
10874;SDS011;5490;52.200;8.786;2023-03-12T16:55:39;12.40;;;6.03;;
10874;SDS011;5490;52.200;8.786;2023-03-12T16:58:10;14.43;;;6.17;;
10874;SDS011;5490;52.200;8.786;2023-03-12T17:00:39;9.90;;;5.37;;
10874;SDS011;5490;52.200;8.786;2023-03-12T17:03:05;8.93;;;4.87;;
10874;SDS011;5490;52.200;8.786;2023-03-12T17:05:32;15.77;;;5.67;;
10874;SDS011;5490;52.200;8.786;2023-03-12T17:07:59;9.63;;;5.27;;
10874;SDS011;5490;52.200;8.786;2023-03-12T17:10:25;8.23;;;6.30;;
10874;SDS011;5490;52.200;8.786;2023-03-12T17:12:53;13.50;;;6.63;;
10874;SDS011;5490;52.200;8.786;2023-03-12T17:15:21;8.10;;;4.77;;
10874;SDS011;5490;52.200;8.786;2023-03-12T17:17:49;9.17;;;5.53;;
10874;SDS011;5490;52.200;8.786;2023-03-12T17:20:17;7.87;;;5.20;;
10874;SDS011;5490;52.200;8.786;2023-03-12T17:22:46;6.33;;;4.70;;
10874;SDS011;5490;52.200;8.786;2023-03-12T17:25:16;9.03;;;5.10;;
10874;SDS011;5490;52.200;8.786;2023-03-12T17:27:47;8.80;;;4.93;;
10874;SDS011;5490;52.200;8.786;2023-03-12T17:30:15;9.07;;;4.53;;
10874;SDS011;5490;52.200;8.786;2023-03-12T17:32:42;15.33;;;5.30;;
10874;SDS011;5490;52.200;8.786;2023-03-12T17:35:09;9.40;;;3.97;;
10874;SDS011;5490;52.200;8.786;2023-03-12T17:37:36;6.10;;;4.13;;
10874;SDS011;5490;52.200;8.786;2023-03-12T17:40:03;6.93;;;4.50;;
10874;SDS011;5490;52.200;8.786;2023-03-12T17:42:32;4.67;;;4.07;;
10874;SDS011;5490;52.200;8.786;2023-03-12T17:44:59;5.13;;;3.23;;
10874;SDS011;5490;52.200;8.786;2023-03-12T17:47:27;5.63;;;3.43;;
10874;SDS011;5490;52.200;8.786;2023-03-12T17:49:54;5.63;;;3.43;;
10874;SDS011;5490;52.200;8.786;2023-03-12T17:52:21;4.60;;;3.17;;
10874;SDS011;5490;52.200;8.786;2023-03-12T17:54:47;7.40;;;4.10;;
10874;SDS011;5490;52.200;8.786;2023-03-12T17:57:14;6.20;;;2.50;;
10874;SDS011;5490;52.200;8.786;2023-03-12T17:59:41;6.57;;;2.70;;
10874;SDS011;5490;52.200;8.786;2023-03-12T18:02:08;6.87;;;3.70;;
10874;SDS011;5490;52.200;8.786;2023-03-12T18:04:37;8.43;;;3.40;;
10874;SDS011;5490;52.200;8.786;2023-03-12T18:07:04;8.17;;;3.17;;
10874;SDS011;5490;52.200;8.786;2023-03-12T18:09:31;7.20;;;2.67;;
10874;SDS011;5490;52.200;8.786;2023-03-12T18:11:57;5.63;;;2.57;;
10874;SDS011;5490;52.200;8.786;2023-03-12T18:14:24;5.73;;;3.93;;
10874;SDS011;5490;52.200;8.786;2023-03-12T18:16:51;6.17;;;2.77;;
10874;SDS011;5490;52.200;8.786;2023-03-12T18:19:18;5.60;;;2.50;;
10874;SDS011;5490;52.200;8.786;2023-03-12T18:21:46;4.50;;;3.00;;
10874;SDS011;5490;52.200;8.786;2023-03-12T18:24:13;8.23;;;3.73;;
10874;SDS011;5490;52.200;8.786;2023-03-12T18:26:42;7.10;;;2.70;;
10874;SDS011;5490;52.200;8.786;2023-03-12T18:29:09;4.30;;;2.27;;
10874;SDS011;5490;52.200;8.786;2023-03-12T18:31:36;7.87;;;3.23;;
10874;SDS011;5490;52.200;8.786;2023-03-12T18:34:03;4.93;;;2.90;;
10874;SDS011;5490;52.200;8.786;2023-03-12T18:36:30;9.20;;;3.23;;
10874;SDS011;5490;52.200;8.786;2023-03-12T18:38:58;6.57;;;2.47;;
10874;SDS011;5490;52.200;8.786;2023-03-12T18:41:28;7.90;;;3.10;;
10874;SDS011;5490;52.200;8.786;2023-03-12T18:43:56;6.07;;;3.53;;
10874;SDS011;5490;52.200;8.786;2023-03-12T18:46:23;8.87;;;2.70;;
10874;SDS011;5490;52.200;8.786;2023-03-12T18:48:50;5.50;;;3.27;;
10874;SDS011;5490;52.200;8.786;2023-03-12T18:51:17;3.77;;;2.47;;
10874;SDS011;5490;52.200;8.786;2023-03-12T18:53:44;10.37;;;3.10;;
10874;SDS011;5490;52.200;8.786;2023-03-12T18:56:12;7.23;;;3.77;;
10874;SDS011;5490;52.200;8.786;2023-03-12T18:58:39;6.53;;;3.67;;
10874;SDS011;5490;52.200;8.786;2023-03-12T19:01:06;10.80;;;3.80;;
10874;SDS011;5490;52.200;8.786;2023-03-12T19:03:32;4.33;;;2.90;;
10874;SDS011;5490;52.200;8.786;2023-03-12T19:06:00;5.83;;;2.40;;
10874;SDS011;5490;52.200;8.786;2023-03-12T19:08:29;9.20;;;4.33;;
10874;SDS011;5490;52.200;8.786;2023-03-12T19:10:56;11.13;;;2.53;;
10874;SDS011;5490;52.200;8.786;2023-03-12T19:13:24;4.23;;;2.97;;
10874;SDS011;5490;52.200;8.786;2023-03-12T19:15:55;5.03;;;2.70;;
10874;SDS011;5490;52.200;8.786;2023-03-12T19:18:23;4.00;;;2.67;;
10874;SDS011;5490;52.200;8.786;2023-03-12T19:20:50;4.93;;;2.00;;
10874;SDS011;5490;52.200;8.786;2023-03-12T19:23:16;6.57;;;3.37;;
10874;SDS011;5490;52.200;8.786;2023-03-12T19:25:43;6.07;;;2.57;;
10874;SDS011;5490;52.200;8.786;2023-03-12T19:28:10;9.63;;;2.70;;
10874;SDS011;5490;52.200;8.786;2023-03-12T19:30:38;7.23;;;2.53;;
10874;SDS011;5490;52.200;8.786;2023-03-12T19:33:05;7.73;;;2.47;;
10874;SDS011;5490;52.200;8.786;2023-03-12T19:35:32;6.33;;;2.87;;
10874;SDS011;5490;52.200;8.786;2023-03-12T19:37:58;9.93;;;3.10;;
10874;SDS011;5490;52.200;8.786;2023-03-12T19:40:26;6.53;;;2.90;;
10874;SDS011;5490;52.200;8.786;2023-03-12T19:42:52;4.23;;;2.40;;
10874;SDS011;5490;52.200;8.786;2023-03-12T19:45:19;4.03;;;2.80;;
10874;SDS011;5490;52.200;8.786;2023-03-12T19:47:47;4.67;;;2.70;;
10874;SDS011;5490;52.200;8.786;2023-03-12T19:50:16;8.97;;;3.43;;
10874;SDS011;5490;52.200;8.786;2023-03-12T19:52:44;3.87;;;2.07;;
10874;SDS011;5490;52.200;8.786;2023-03-12T19:55:10;7.03;;;4.30;;
10874;SDS011;5490;52.200;8.786;2023-03-12T19:57:37;4.77;;;2.37;;
10874;SDS011;5490;52.200;8.786;2023-03-12T20:00:05;9.13;;;3.67;;
10874;SDS011;5490;52.200;8.786;2023-03-12T20:02:33;7.53;;;2.63;;
10874;SDS011;5490;52.200;8.786;2023-03-12T20:05:01;11.93;;;3.40;;
10874;SDS011;5490;52.200;8.786;2023-03-12T20:07:29;5.93;;;3.20;;
10874;SDS011;5490;52.200;8.786;2023-03-12T20:09:55;6.70;;;3.67;;
10874;SDS011;5490;52.200;8.786;2023-03-12T20:12:22;5.90;;;3.60;;
10874;SDS011;5490;52.200;8.786;2023-03-12T20:14:49;11.37;;;3.67;;
10874;SDS011;5490;52.200;8.786;2023-03-12T20:17:16;8.93;;;3.53;;
10874;SDS011;5490;52.200;8.786;2023-03-12T20:19:43;4.63;;;3.70;;
10874;SDS011;5490;52.200;8.786;2023-03-12T20:22:11;8.33;;;3.57;;
10874;SDS011;5490;52.200;8.786;2023-03-12T20:24:37;6.90;;;3.20;;
10874;SDS011;5490;52.200;8.786;2023-03-12T20:27:04;4.03;;;2.97;;
10874;SDS011;5490;52.200;8.786;2023-03-12T20:29:31;13.17;;;3.20;;
10874;SDS011;5490;52.200;8.786;2023-03-12T20:31:58;6.17;;;3.17;;
10874;SDS011;5490;52.200;8.786;2023-03-12T20:34:25;10.70;;;2.90;;
10874;SDS011;5490;52.200;8.786;2023-03-12T20:36:51;6.67;;;3.10;;
10874;SDS011;5490;52.200;8.786;2023-03-12T20:39:19;3.67;;;2.50;;
10874;SDS011;5490;52.200;8.786;2023-03-12T20:41:47;4.57;;;2.37;;
10874;SDS011;5490;52.200;8.786;2023-03-12T20:44:14;7.43;;;3.97;;
10874;SDS011;5490;52.200;8.786;2023-03-12T20:46:40;7.60;;;3.00;;
10874;SDS011;5490;52.200;8.786;2023-03-12T20:49:07;8.77;;;2.57;;
10874;SDS011;5490;52.200;8.786;2023-03-12T20:51:34;7.77;;;2.50;;
10874;SDS011;5490;52.200;8.786;2023-03-12T20:54:01;5.93;;;3.03;;
10874;SDS011;5490;52.200;8.786;2023-03-12T20:56:29;5.33;;;2.50;;
10874;SDS011;5490;52.200;8.786;2023-03-12T20:58:55;5.33;;;2.60;;
10874;SDS011;5490;52.200;8.786;2023-03-12T21:01:23;9.53;;;2.87;;
10874;SDS011;5490;52.200;8.786;2023-03-12T21:03:50;8.50;;;3.77;;
10874;SDS011;5490;52.200;8.786;2023-03-12T21:06:17;9.57;;;2.80;;
10874;SDS011;5490;52.200;8.786;2023-03-12T21:08:43;8.33;;;2.57;;
10874;SDS011;5490;52.200;8.786;2023-03-12T21:11:10;6.77;;;2.47;;
10874;SDS011;5490;52.200;8.786;2023-03-12T21:13:38;10.27;;;2.90;;
10874;SDS011;5490;52.200;8.786;2023-03-12T21:16:05;7.80;;;2.57;;
10874;SDS011;5490;52.200;8.786;2023-03-12T21:18:32;4.73;;;1.93;;
10874;SDS011;5490;52.200;8.786;2023-03-12T21:21:00;17.37;;;2.53;;
10874;SDS011;5490;52.200;8.786;2023-03-12T21:23:28;13.17;;;3.00;;
10874;SDS011;5490;52.200;8.786;2023-03-12T21:25:56;7.90;;;2.47;;
10874;SDS011;5490;52.200;8.786;2023-03-12T21:28:24;8.50;;;2.33;;
10874;SDS011;5490;52.200;8.786;2023-03-12T21:30:53;8.03;;;2.60;;
10874;SDS011;5490;52.200;8.786;2023-03-12T21:33:20;12.97;;;2.37;;
10874;SDS011;5490;52.200;8.786;2023-03-12T21:35:47;6.57;;;2.10;;
10874;SDS011;5490;52.200;8.786;2023-03-12T21:38:13;4.10;;;2.10;;
10874;SDS011;5490;52.200;8.786;2023-03-12T21:40:40;5.00;;;1.83;;
10874;SDS011;5490;52.200;8.786;2023-03-12T21:43:07;2.13;;;1.83;;
10874;SDS011;5490;52.200;8.786;2023-03-12T21:45:33;10.23;;;2.73;;
10874;SDS011;5490;52.200;8.786;2023-03-12T21:48:02;11.37;;;2.50;;
10874;SDS011;5490;52.200;8.786;2023-03-12T21:50:28;4.50;;;2.03;;
10874;SDS011;5490;52.200;8.786;2023-03-12T21:52:55;4.90;;;1.50;;
10874;SDS011;5490;52.200;8.786;2023-03-12T21:55:22;6.17;;;1.60;;
10874;SDS011;5490;52.200;8.786;2023-03-12T21:57:49;5.77;;;2.70;;
10874;SDS011;5490;52.200;8.786;2023-03-12T22:00:24;8.67;;;2.33;;
10874;SDS011;5490;52.200;8.786;2023-03-12T22:02:53;7.27;;;1.67;;
10874;SDS011;5490;52.200;8.786;2023-03-12T22:05:21;3.23;;;1.80;;
10874;SDS011;5490;52.200;8.786;2023-03-12T22:07:47;7.73;;;2.87;;
10874;SDS011;5490;52.200;8.786;2023-03-12T22:10:14;5.43;;;2.07;;
10874;SDS011;5490;52.200;8.786;2023-03-12T22:12:42;9.03;;;1.77;;
10874;SDS011;5490;52.200;8.786;2023-03-12T22:15:09;5.80;;;2.47;;
10874;SDS011;5490;52.200;8.786;2023-03-12T22:17:36;7.07;;;2.07;;
10874;SDS011;5490;52.200;8.786;2023-03-12T22:20:03;5.37;;;2.33;;
10874;SDS011;5490;52.200;8.786;2023-03-12T22:22:34;2.37;;;1.83;;
10874;SDS011;5490;52.200;8.786;2023-03-12T22:25:03;12.53;;;2.10;;
10874;SDS011;5490;52.200;8.786;2023-03-12T22:27:30;7.00;;;2.90;;
10874;SDS011;5490;52.200;8.786;2023-03-12T22:29:57;5.77;;;1.87;;
10874;SDS011;5490;52.200;8.786;2023-03-12T22:32:24;11.93;;;2.40;;
10874;SDS011;5490;52.200;8.786;2023-03-12T22:34:51;7.67;;;2.63;;
10874;SDS011;5490;52.200;8.786;2023-03-12T22:37:18;12.53;;;2.47;;
10874;SDS011;5490;52.200;8.786;2023-03-12T22:39:46;5.70;;;1.43;;
10874;SDS011;5490;52.200;8.786;2023-03-12T22:42:12;11.40;;;2.33;;
10874;SDS011;5490;52.200;8.786;2023-03-12T22:44:39;1.90;;;1.40;;
10874;SDS011;5490;52.200;8.786;2023-03-12T22:47:07;6.43;;;2.00;;
10874;SDS011;5490;52.200;8.786;2023-03-12T22:49:33;9.70;;;1.97;;
10874;SDS011;5490;52.200;8.786;2023-03-12T22:52:00;5.40;;;2.33;;
10874;SDS011;5490;52.200;8.786;2023-03-12T22:54:27;6.77;;;2.03;;
10874;SDS011;5490;52.200;8.786;2023-03-12T22:56:55;7.67;;;2.53;;
10874;SDS011;5490;52.200;8.786;2023-03-12T22:59:21;3.17;;;1.13;;
10874;SDS011;5490;52.200;8.786;2023-03-12T23:01:48;7.70;;;1.50;;
10874;SDS011;5490;52.200;8.786;2023-03-12T23:04:15;5.97;;;2.10;;
10874;SDS011;5490;52.200;8.786;2023-03-12T23:06:41;4.90;;;1.83;;
10874;SDS011;5490;52.200;8.786;2023-03-12T23:09:09;8.33;;;2.23;;
10874;SDS011;5490;52.200;8.786;2023-03-12T23:11:36;10.50;;;1.70;;
10874;SDS011;5490;52.200;8.786;2023-03-12T23:14:05;3.73;;;1.47;;
10874;SDS011;5490;52.200;8.786;2023-03-12T23:16:32;5.53;;;2.17;;
10874;SDS011;5490;52.200;8.786;2023-03-12T23:18:59;2.13;;;1.23;;
10874;SDS011;5490;52.200;8.786;2023-03-12T23:21:26;5.70;;;1.43;;
10874;SDS011;5490;52.200;8.786;2023-03-12T23:23:53;4.40;;;1.87;;
10874;SDS011;5490;52.200;8.786;2023-03-12T23:26:20;7.23;;;2.23;;
10874;SDS011;5490;52.200;8.786;2023-03-12T23:28:48;9.13;;;2.63;;
10874;SDS011;5490;52.200;8.786;2023-03-12T23:31:18;3.97;;;1.47;;
10874;SDS011;5490;52.200;8.786;2023-03-12T23:33:45;5.00;;;1.70;;
10874;SDS011;5490;52.200;8.786;2023-03-12T23:36:12;4.00;;;2.37;;
10874;SDS011;5490;52.200;8.786;2023-03-12T23:38:41;9.07;;;2.40;;
10874;SDS011;5490;52.200;8.786;2023-03-12T23:41:09;5.37;;;1.80;;
10874;SDS011;5490;52.200;8.786;2023-03-12T23:43:37;9.47;;;1.80;;
10874;SDS011;5490;52.200;8.786;2023-03-12T23:46:05;6.20;;;1.17;;
10874;SDS011;5490;52.200;8.786;2023-03-12T23:48:34;3.80;;;1.87;;
10874;SDS011;5490;52.200;8.786;2023-03-12T23:51:02;4.67;;;1.43;;
